createdAt,value
2022-08-01T00:01:34.806Z,99371.41
2022-08-01T00:04:03.368Z,99371.63
2022-08-01T00:06:33.959Z,99378.72
2022-08-01T00:09:02.557Z,99374.53
2022-08-01T00:11:31.329Z,99375.50
2022-08-01T00:13:59.915Z,99372.91
2022-08-01T00:16:28.798Z,99378.38
2022-08-01T00:18:57.492Z,99377.41
2022-08-01T00:21:26.080Z,99376.75
2022-08-01T00:23:56.072Z,99370.75
2022-08-01T00:26:24.726Z,99373.31
2022-08-01T00:28:53.334Z,99373.59
2022-08-01T00:31:22.248Z,99374.19
2022-08-01T00:33:50.883Z,99368.75
2022-08-01T00:36:19.587Z,99369.97
2022-08-01T00:38:48.185Z,99371.03
2022-08-01T00:41:18.136Z,99372.06
2022-08-01T00:43:46.795Z,99371.03
2022-08-01T00:46:15.690Z,99368.06
2022-08-01T00:48:44.402Z,99368.84
2022-08-01T00:51:14.665Z,99370.75
2022-08-01T00:53:51.875Z,99359.97
2022-08-01T00:56:25.827Z,99365.75
2022-08-01T00:58:55.300Z,99365.59
2022-08-01T01:01:25.468Z,99359.66
2022-08-01T01:04:08.352Z,99357.94
2022-08-01T01:06:46.482Z,99363.47
2022-08-01T01:09:25.854Z,99360.00
2022-08-01T01:12:04.972Z,99358.13
2022-08-01T01:14:38.891Z,99359.06
2022-08-01T01:17:09.902Z,99355.69
2022-08-01T01:19:44.077Z,99365.34
2022-08-01T01:22:35.423Z,99354.31
2022-08-01T01:25:19.817Z,99362.78
2022-08-01T01:27:59.317Z,99365.53
2022-08-01T01:30:31.609Z,99355.44
2022-08-01T01:33:04.542Z,99357.75
2022-08-01T01:35:40.608Z,99363.22
2022-08-01T01:38:12.892Z,99360.41
2022-08-01T01:40:43.109Z,99359.47
2022-08-01T01:43:13.550Z,99357.94
2022-08-01T01:45:46.086Z,99365.19
2022-08-01T01:48:17.243Z,99364.41
2022-08-01T01:50:48.105Z,99369.94
2022-08-01T01:53:20.701Z,99365.53
2022-08-01T01:55:53.996Z,99361.31
2022-08-01T01:58:24.379Z,99362.66
2022-08-01T02:00:57.230Z,99362.88
2022-08-01T02:03:28.608Z,99349.41
2022-08-01T02:05:58.679Z,99346.91
2022-08-01T02:08:29.493Z,99350.56
2022-08-01T02:11:23.153Z,99355.03
2022-08-01T02:13:55.774Z,99352.84
2022-08-01T02:16:29.211Z,99352.94
2022-08-01T02:18:58.288Z,99351.25
2022-08-01T02:21:31.526Z,99347.88
2022-08-01T02:24:10.240Z,99352.38
2022-08-01T02:26:43.055Z,99346.91
2022-08-01T02:29:17.086Z,99356.59
2022-08-01T02:31:49.564Z,99348.75
2022-08-01T02:34:21.207Z,99346.91
2022-08-01T02:36:52.214Z,99348.75
2022-08-01T02:39:23.566Z,99343.97
2022-08-01T02:41:57.672Z,99343.03
2022-08-01T02:44:30.813Z,99348.88
2022-08-01T02:47:04.151Z,99353.38
2022-08-01T02:49:35.423Z,99346.28
2022-08-01T02:52:09.186Z,99346.50
2022-08-01T02:54:39.355Z,99346.63
2022-08-01T02:57:13.988Z,99341.50
2022-08-01T02:59:45.095Z,99345.13
2022-08-01T03:02:16.669Z,99342.47
2022-08-01T03:04:46.764Z,99343.22
2022-08-01T03:07:16.941Z,99336.75
2022-08-01T03:09:47.875Z,99342.25
2022-08-01T03:12:19.846Z,99342.16
2022-08-01T03:14:51.430Z,99347.34
2022-08-01T03:17:25.568Z,99344.66
2022-08-01T03:19:55.219Z,99348.97
2022-08-01T03:22:26.846Z,99342.97
2022-08-01T03:24:58.011Z,99346.41
2022-08-01T03:27:27.213Z,99348.66
2022-08-01T03:29:58.534Z,99354.66
2022-08-01T03:32:30.581Z,99351.97
2022-08-01T03:34:59.893Z,99349.59
2022-08-01T03:37:30.447Z,99352.94
2022-08-01T03:40:02.778Z,99344.34
2022-08-01T03:42:35.920Z,99337.47
2022-08-01T03:45:10.310Z,99348.34
2022-08-01T03:47:46.124Z,99345.56
2022-08-01T03:50:17.776Z,99348.75
2022-08-01T03:52:48.646Z,99346.25
2022-08-01T03:55:18.960Z,99351.69
2022-08-01T03:57:49.215Z,99350.91
2022-08-01T04:00:19.418Z,99355.22
2022-08-01T04:02:51.455Z,99354.16
2022-08-01T04:05:20.156Z,99351.59
2022-08-01T04:07:56.045Z,99351.78
2022-08-01T04:10:25.306Z,99349.03
2022-08-01T04:12:54.265Z,99351.97
2022-08-01T04:15:23.097Z,99361.53
2022-08-01T04:17:55.007Z,99354.28
2022-08-01T04:20:23.721Z,99351.59
2022-08-01T04:22:53.484Z,99350.56
2022-08-01T04:25:28.570Z,99357.81
2022-08-01T04:27:59.214Z,99360.19
2022-08-01T04:30:30.700Z,99364.16
2022-08-01T04:33:03.212Z,99369.50
2022-08-01T04:36:02.778Z,99371.56
2022-08-01T04:38:24.600Z,99375.09
2022-08-01T04:40:54.597Z,99380.63
2022-08-01T04:43:23.928Z,99379.94
2022-08-01T04:45:53.469Z,99380.63
2022-08-01T04:48:25.795Z,99379.66
2022-08-01T04:50:54.698Z,99375.03
2022-08-01T04:53:23.834Z,99373.97
2022-08-01T04:55:52.469Z,99374.94
2022-08-01T04:58:21.582Z,99375.50
2022-08-01T05:00:50.203Z,99385.63
2022-08-01T05:03:18.867Z,99385.56
2022-08-01T05:05:48.876Z,99382.47
2022-08-01T05:08:17.927Z,99384.00
2022-08-01T05:10:46.466Z,99382.50
2022-08-01T05:13:14.960Z,99382.50
2022-08-01T05:15:43.757Z,99381.78
2022-08-01T05:18:12.633Z,99375.97
2022-08-01T05:20:43.046Z,99377.34
2022-08-01T05:23:20.602Z,99368.97
2022-08-01T05:26:05.850Z,99370.84
2022-08-01T05:28:34.534Z,99380.09
2022-08-01T05:31:03.190Z,99379.16
2022-08-01T05:33:31.877Z,99386.81
2022-08-01T05:36:00.960Z,99386.84
2022-08-01T05:38:30.988Z,99388.91
2022-08-01T05:40:59.696Z,99388.72
2022-08-01T05:43:29.186Z,99386.28
2022-08-01T05:45:59.283Z,99383.19
2022-08-01T05:48:27.932Z,99390.59
2022-08-01T05:50:58.626Z,99383.66
2022-08-01T05:53:27.551Z,99391.03
2022-08-01T05:55:57.705Z,99394.44
2022-08-01T05:58:26.216Z,99393.69
2022-08-01T06:00:54.840Z,99392.56
2022-08-01T06:03:23.457Z,99390.50
2022-08-01T06:05:53.880Z,99380.78
2022-08-01T06:08:22.688Z,99387.97
2022-08-01T06:10:51.284Z,99385.44
2022-08-01T06:13:21.490Z,99395.63
2022-08-01T06:15:50.375Z,99383.63
2022-08-01T06:18:19.345Z,99387.81
2022-08-01T06:20:48.000Z,99393.56
2022-08-01T06:23:31.500Z,99390.72
2022-08-01T06:26:01.531Z,99398.19
2022-08-01T06:28:31.663Z,99388.44
2022-08-01T06:31:01.145Z,99398.25
2022-08-01T06:33:30.330Z,99393.59
2022-08-01T06:35:58.903Z,99393.94
2022-08-01T06:38:27.731Z,99394.78
2022-08-01T06:40:56.365Z,99391.56
2022-08-01T06:43:24.969Z,99399.03
2022-08-01T06:45:54.992Z,99397.13
2022-08-01T06:48:23.711Z,99400.91
2022-08-01T06:51:08.656Z,99406.41
2022-08-01T06:53:39.423Z,99402.34
2022-08-01T06:56:09.610Z,99395.16
2022-08-01T06:58:38.503Z,99401.25
2022-08-01T07:01:09.053Z,99408.97
2022-08-01T07:03:54.103Z,99407.78
2022-08-01T07:06:24.920Z,99401.53
2022-08-01T07:08:53.645Z,99398.19
2022-08-01T07:11:22.482Z,99398.75
2022-08-01T07:13:51.392Z,99398.94
2022-08-01T07:16:21.736Z,99401.44
2022-08-01T07:18:50.383Z,99398.31
2022-08-01T07:21:39.690Z,99402.19
2022-08-01T07:24:12.743Z,99408.88
2022-08-01T07:26:53.984Z,99407.13
2022-08-01T07:29:24.962Z,99409.88
2022-08-01T07:31:55.895Z,99408.06
2022-08-01T07:34:26.238Z,99412.56
2022-08-01T07:36:55.041Z,99417.50
2022-08-01T07:39:23.915Z,99419.78
2022-08-01T07:42:05.808Z,99427.38
2022-08-01T07:44:36.731Z,99418.50
2022-08-01T07:47:07.563Z,99430.81
2022-08-01T07:49:40.309Z,99428.88
2022-08-01T07:52:09.827Z,99424.41
2022-08-01T07:54:38.712Z,99429.22
2022-08-01T07:57:08.039Z,99423.44
2022-08-01T07:59:36.744Z,99430.72
2022-08-01T08:02:07.188Z,99435.00
2022-08-01T08:04:36.037Z,99446.06
2022-08-01T08:07:05.266Z,99439.28
2022-08-01T08:09:37.091Z,99437.38
2022-08-01T08:12:08.709Z,99445.75
2022-08-01T08:14:37.636Z,99438.44
2022-08-01T08:17:07.751Z,99440.91
2022-08-01T08:19:39.225Z,99446.59
2022-08-01T08:22:09.656Z,99445.00
2022-08-01T08:24:44.132Z,99447.97
2022-08-01T08:27:16.119Z,99451.28
2022-08-01T08:29:45.203Z,99444.88
2022-08-01T08:32:15.706Z,99442.50
2022-08-01T08:34:44.698Z,99443.31
2022-08-01T08:37:13.851Z,99448.50
2022-08-01T08:39:42.634Z,99438.84
2022-08-01T08:42:12.709Z,99439.47
2022-08-01T08:44:44.151Z,99439.13
2022-08-01T08:47:20.163Z,99434.00
2022-08-01T08:49:50.643Z,99445.69
2022-08-01T08:52:21.862Z,99440.09
2022-08-01T08:54:51.719Z,99436.22
2022-08-01T08:57:22.955Z,99437.94
2022-08-01T08:59:55.110Z,99438.38
2022-08-01T09:02:25.172Z,99439.88
2022-08-01T09:04:54.399Z,99444.16
2022-08-01T09:07:23.852Z,99444.53
2022-08-01T09:09:52.908Z,99444.59
2022-08-01T09:12:22.933Z,99443.03
2022-08-01T09:14:54.407Z,99441.84
2022-08-01T09:17:23.279Z,99445.44
2022-08-01T09:19:57.496Z,99456.72
2022-08-01T09:22:27.068Z,99456.22
2022-08-01T09:25:01.703Z,99470.41
2022-08-01T09:27:31.575Z,99473.00
2022-08-01T09:30:11.619Z,99472.22
2022-08-01T09:32:57.992Z,99482.69
2022-08-01T09:35:31.824Z,99483.56
2022-08-01T09:38:18.880Z,99475.63
2022-08-01T09:40:49.542Z,99477.19
2022-08-01T09:43:19.388Z,99482.91
2022-08-01T09:45:50.397Z,99470.53
2022-08-01T09:48:20.338Z,99472.91
2022-08-01T09:50:55.474Z,99470.84
2022-08-01T09:53:28.674Z,99468.13
2022-08-01T09:56:11.010Z,99470.81
2022-08-01T09:59:00.331Z,99471.25
2022-08-01T10:01:37.372Z,99468.00
2022-08-01T10:04:10.525Z,99460.41
2022-08-01T10:06:43.664Z,99456.06
2022-08-01T10:09:14.037Z,99471.34
2022-08-01T10:11:45.249Z,99469.66
2022-08-01T10:14:17.746Z,99479.44
2022-08-01T10:16:53.498Z,99480.38
2022-08-01T10:19:28.990Z,99482.78
2022-08-01T10:22:00.441Z,99477.22
2022-08-01T10:24:33.535Z,99483.50
2022-08-01T10:27:09.467Z,99485.72
2022-08-01T10:30:05.522Z,99487.78
2022-08-01T10:32:36.819Z,99478.28
2022-08-01T10:35:14.864Z,99483.97
2022-08-01T10:37:52.205Z,99477.63
2022-08-01T10:40:31.406Z,99491.34
2022-08-01T10:43:01.486Z,99483.59
2022-08-01T10:45:30.954Z,99484.59
2022-08-01T10:48:06.620Z,99490.75
2022-08-01T10:50:36.896Z,99493.44
2022-08-01T10:53:31.770Z,99490.78
2022-08-01T10:56:12.923Z,99479.19
2022-08-01T10:58:44.996Z,99480.78
2022-08-01T11:01:25.542Z,99484.38
2022-08-01T11:04:15.494Z,99479.91
2022-08-01T11:06:52.622Z,99478.78
2022-08-01T11:09:36.874Z,99476.41
2022-08-01T11:12:13.585Z,99470.97
2022-08-01T11:15:16.875Z,99466.59
2022-08-01T11:17:58.556Z,99468.47
2022-08-01T11:20:32.255Z,99466.53
2022-08-01T11:23:25.283Z,99466.75
2022-08-01T11:26:15.067Z,99468.06
2022-08-01T11:29:11.055Z,99460.53
2022-08-01T11:31:37.056Z,99458.03
2022-08-01T11:34:07.168Z,99458.09
2022-08-01T11:36:58.559Z,99459.13
2022-08-01T11:39:24.696Z,99460.19
2022-08-01T11:41:55.592Z,99459.25
2022-08-01T11:44:28.431Z,99453.78
2022-08-01T11:47:11.594Z,99465.09
2022-08-01T11:49:55.662Z,99472.66
2022-08-01T11:52:29.945Z,99471.41
2022-08-01T11:55:10.459Z,99468.22
2022-08-01T11:57:41.644Z,99462.03
2022-08-01T12:00:15.458Z,99460.53
2022-08-01T12:02:47.200Z,99464.50
2022-08-01T12:05:21.397Z,99465.44
2022-08-01T12:07:55.976Z,99468.03
2022-08-01T12:10:26.533Z,99466.19
2022-08-01T12:13:00.962Z,99482.63
2022-08-01T12:15:34.578Z,99484.13
2022-08-01T12:18:05.514Z,99472.38
2022-08-01T12:20:36.717Z,99472.06
2022-08-01T12:23:09.182Z,99475.56
2022-08-01T12:25:40.177Z,99472.13
2022-08-01T12:28:11.532Z,99465.88
2022-08-01T12:30:40.823Z,99468.63
2022-08-01T12:33:13.216Z,99469.28
2022-08-01T12:35:42.809Z,99461.69
2022-08-01T12:38:17.351Z,99460.53
2022-08-01T12:40:51.621Z,99454.97
2022-08-01T12:43:28.001Z,99458.09
2022-08-01T12:46:01.165Z,99459.91
2022-08-01T12:48:33.003Z,99453.31
2022-08-01T12:51:03.260Z,99448.91
2022-08-01T12:53:40.784Z,99442.44
2022-08-01T12:56:12.016Z,99446.66
2022-08-01T12:58:42.258Z,99450.84
2022-08-01T13:01:14.157Z,99451.13
2022-08-01T13:03:43.211Z,99454.63
2022-08-01T13:06:15.461Z,99456.81
2022-08-01T13:08:45.302Z,99454.34
2022-08-01T13:11:16.531Z,99447.38
2022-08-01T13:13:49.090Z,99446.47
2022-08-01T13:16:27.940Z,99450.06
2022-08-01T13:19:03.146Z,99448.69
2022-08-01T13:21:52.479Z,99446.84
2022-08-01T13:24:26.661Z,99454.47
2022-08-01T13:26:59.772Z,99446.13
2022-08-01T13:29:35.314Z,99444.44
2022-08-01T13:32:27.954Z,99438.53
2022-08-01T13:35:05.966Z,99441.03
2022-08-01T13:37:34.857Z,99436.31
2022-08-01T13:40:06.877Z,99447.81
2022-08-01T13:42:35.856Z,99448.84
2022-08-01T13:45:14.371Z,99435.09
2022-08-01T13:48:03.568Z,99446.84
2022-08-01T13:50:34.948Z,99439.34
2022-08-01T13:53:03.738Z,99437.31
2022-08-01T13:55:35.000Z,99432.88
2022-08-01T13:58:04.958Z,99436.88
2022-08-01T14:00:34.990Z,99439.91
2022-08-01T14:03:03.789Z,99435.81
2022-08-01T14:05:35.208Z,99432.31
2022-08-01T14:08:04.043Z,99431.75
2022-08-01T14:10:33.282Z,99426.72
2022-08-01T14:13:02.123Z,99424.72
2022-08-01T14:15:39.055Z,99428.13
2022-08-01T14:18:10.937Z,99425.41
2022-08-01T14:20:40.924Z,99429.47
2022-08-01T14:23:10.288Z,99419.19
2022-08-01T14:26:03.728Z,99420.13
2022-08-01T14:28:29.349Z,99418.50
2022-08-01T14:30:58.675Z,99416.81
2022-08-01T14:33:29.287Z,99424.28
2022-08-01T14:36:05.444Z,99426.34
2022-08-01T14:38:46.860Z,99414.97
2022-08-01T14:41:15.664Z,99416.59
2022-08-01T14:43:44.300Z,99424.34
2022-08-01T14:46:13.981Z,99428.53
2022-08-01T14:48:44.369Z,99423.50
2022-08-01T14:51:13.087Z,99425.81
2022-08-01T14:53:46.901Z,99413.72
2022-08-01T14:56:19.483Z,99419.59
2022-08-01T14:58:48.608Z,99425.34
2022-08-01T15:01:19.008Z,99427.53
2022-08-01T15:03:51.174Z,99433.94
2022-08-01T15:06:20.072Z,99433.28
2022-08-01T15:08:48.878Z,99431.69
2022-08-01T15:11:17.509Z,99434.38
2022-08-01T15:13:46.075Z,99433.88
2022-08-01T15:16:15.111Z,99434.84
2022-08-01T15:18:43.820Z,99435.16
2022-08-01T15:21:29.291Z,99431.16
2022-08-01T15:24:02.395Z,99443.47
2022-08-01T15:26:31.034Z,99439.41
2022-08-01T15:28:59.831Z,99440.13
2022-08-01T15:31:28.323Z,99445.06
2022-08-01T15:33:56.885Z,99437.94
2022-08-01T15:36:26.999Z,99442.22
2022-08-01T15:38:56.655Z,99445.50
2022-08-01T15:41:25.236Z,99441.38
2022-08-01T15:43:55.983Z,99446.47
2022-08-01T15:46:25.532Z,99444.34
2022-08-01T15:48:54.891Z,99453.75
2022-08-01T15:51:23.739Z,99454.03
2022-08-01T15:53:53.737Z,99444.50
2022-08-01T15:56:22.353Z,99448.63
2022-08-01T15:58:50.930Z,99452.63
2022-08-01T16:01:20.345Z,99458.28
2022-08-01T16:03:48.986Z,99451.63
2022-08-01T16:06:17.596Z,99446.63
2022-08-01T16:08:46.252Z,99447.03
2022-08-01T16:11:16.235Z,99450.03
2022-08-01T16:13:45.266Z,99444.22
2022-08-01T16:16:15.236Z,99451.03
2022-08-01T16:18:44.175Z,99455.19
2022-08-01T16:21:12.980Z,99449.91
2022-08-01T16:23:44.262Z,99458.13
2022-08-01T16:26:27.216Z,99454.63
2022-08-01T16:28:58.311Z,99456.94
2022-08-01T16:31:42.443Z,99451.25
2022-08-01T16:34:18.735Z,99452.38
2022-08-01T16:36:50.246Z,99453.75
2022-08-01T16:39:23.532Z,99450.28
2022-08-01T16:41:56.270Z,99444.78
2022-08-01T16:44:33.611Z,99446.75
2022-08-01T16:47:04.259Z,99446.63
2022-08-01T16:49:33.975Z,99439.97
2022-08-01T16:52:03.012Z,99438.03
2022-08-01T16:54:31.996Z,99437.72
2022-08-01T16:57:08.579Z,99433.78
2022-08-01T16:59:41.421Z,99442.03
2022-08-01T17:02:12.045Z,99441.44
2022-08-01T17:04:40.975Z,99442.03
2022-08-01T17:07:10.095Z,99444.28
2022-08-01T17:09:43.287Z,99449.72
2022-08-01T17:12:14.001Z,99437.81
2022-08-01T17:14:52.227Z,99450.09
2022-08-01T17:17:23.080Z,99451.66
2022-08-01T17:19:52.468Z,99445.78
2022-08-01T17:22:21.133Z,99449.06
2022-08-01T17:24:53.179Z,99441.69
2022-08-01T17:27:22.910Z,99447.81
2022-08-01T17:29:52.927Z,99448.09
2022-08-01T17:32:21.899Z,99452.44
2022-08-01T17:34:51.215Z,99452.13
2022-08-01T17:37:20.002Z,99456.44
2022-08-01T17:39:49.121Z,99449.50
2022-08-01T17:42:17.825Z,99450.66
2022-08-01T17:44:48.775Z,99447.38
2022-08-01T17:47:40.939Z,99456.09
2022-08-01T17:50:11.165Z,99453.63
2022-08-01T17:52:40.113Z,99458.66
2022-08-01T17:55:53.825Z,99461.09
2022-08-01T17:58:00.579Z,99468.09
2022-08-01T18:00:29.667Z,99459.78
2022-08-01T18:03:00.218Z,99457.31
2022-08-01T18:05:36.810Z,99464.91
2022-08-01T18:08:07.397Z,99470.50
2022-08-01T18:10:36.051Z,99475.47
2022-08-01T18:13:10.046Z,99472.13
2022-08-01T18:15:38.920Z,99476.91
2022-08-01T18:18:09.449Z,99477.59
2022-08-01T18:20:39.226Z,99472.19
2022-08-01T18:23:10.311Z,99481.69
2022-08-01T18:25:40.117Z,99478.63
2022-08-01T18:28:29.827Z,99493.59
2022-08-01T18:31:02.758Z,99489.13
2022-08-01T18:33:33.350Z,99493.13
2022-08-01T18:36:03.649Z,99498.50
2022-08-01T18:38:33.476Z,99494.88
2022-08-01T18:41:05.540Z,99500.06
2022-08-01T18:43:36.584Z,99498.81
2022-08-01T18:46:06.425Z,99505.38
2022-08-01T18:48:36.547Z,99512.47
2022-08-01T18:51:08.434Z,99515.06
2022-08-01T18:53:39.459Z,99506.06
2022-08-01T18:56:12.321Z,99515.75
2022-08-01T18:58:42.258Z,99518.53
2022-08-01T19:01:11.553Z,99510.13
2022-08-01T19:03:42.913Z,99516.16
2022-08-01T19:06:11.856Z,99520.63
2022-08-01T19:08:41.112Z,99517.19
2022-08-01T19:11:09.704Z,99517.63
2022-08-01T19:13:39.092Z,99512.78
2022-08-01T19:16:07.926Z,99519.09
2022-08-01T19:18:36.744Z,99517.16
2022-08-01T19:21:07.867Z,99519.47
2022-08-01T19:23:53.981Z,99520.19
2022-08-01T19:26:27.128Z,99516.16
2022-08-01T19:28:58.615Z,99522.44
2022-08-01T19:31:29.079Z,99537.09
2022-08-01T19:33:58.786Z,99536.34
2022-08-01T19:36:28.966Z,99535.78
2022-08-01T19:38:57.538Z,99547.09
2022-08-01T19:41:26.135Z,99546.44
2022-08-01T19:43:55.547Z,99558.38
2022-08-01T19:46:24.068Z,99541.75
2022-08-01T19:48:54.069Z,99553.06
2022-08-01T19:51:33.717Z,99552.88
2022-08-01T19:54:07.571Z,99554.66
2022-08-01T19:56:44.499Z,99558.75
2022-08-01T19:59:17.272Z,99560.75
2022-08-01T20:01:47.172Z,99563.91
2022-08-01T20:04:16.627Z,99564.66
2022-08-01T20:06:45.843Z,99571.22
2022-08-01T20:09:16.409Z,99572.47
2022-08-01T20:11:46.456Z,99566.44
2022-08-01T20:14:18.543Z,99573.19
2022-08-01T20:16:48.342Z,99579.94
2022-08-01T20:19:18.068Z,99582.38
2022-08-01T20:22:02.629Z,99582.94
2022-08-01T20:24:40.998Z,99580.25
2022-08-01T20:27:11.953Z,99586.03
2022-08-01T20:29:41.168Z,99587.41
2022-08-01T20:32:10.380Z,99588.88
2022-08-01T20:34:40.314Z,99588.78
2022-08-01T20:37:13.090Z,99587.75
2022-08-01T20:39:45.220Z,99586.34
2022-08-01T20:42:14.827Z,99587.50
2022-08-01T20:44:45.205Z,99576.09
2022-08-01T20:47:14.599Z,99577.47
2022-08-01T20:49:45.108Z,99580.78
2022-08-01T20:52:16.705Z,99580.09
2022-08-01T20:54:47.841Z,99575.78
2022-08-01T20:57:23.446Z,99581.44
2022-08-01T20:59:58.624Z,99583.69
2022-08-01T21:02:48.824Z,99581.06
2022-08-01T21:05:25.463Z,99580.94
2022-08-01T21:08:00.108Z,99580.22
2022-08-01T21:10:33.370Z,99584.28
2022-08-01T21:13:03.873Z,99584.84
2022-08-01T21:15:34.411Z,99582.72
2022-08-01T21:18:08.048Z,99594.47
2022-08-01T21:20:41.418Z,99594.59
2022-08-01T21:23:15.659Z,99586.91
2022-08-01T21:25:45.747Z,99595.34
2022-08-01T21:28:15.885Z,99592.94
2022-08-01T21:30:53.807Z,99588.09
2022-08-01T21:33:26.019Z,99591.19
2022-08-01T21:35:56.536Z,99596.81
2022-08-01T21:38:26.214Z,99596.16
2022-08-01T21:40:58.223Z,99594.59
2022-08-01T21:43:27.061Z,99595.59
2022-08-01T21:45:57.498Z,99598.25
2022-08-01T21:48:30.142Z,99595.72
2022-08-01T21:51:02.214Z,99591.06
2022-08-01T21:53:38.407Z,99595.22
2022-08-01T21:56:28.280Z,99597.16
2022-08-01T21:59:05.193Z,99604.44
2022-08-01T22:01:52.675Z,99606.19
2022-08-01T22:04:29.531Z,99595.75
2022-08-01T22:07:00.107Z,99607.28
2022-08-01T22:09:30.793Z,99604.06
2022-08-01T22:12:05.170Z,99602.50
2022-08-01T22:14:34.856Z,99600.19
2022-08-01T22:17:03.504Z,99597.34
2022-08-01T22:19:44.868Z,99594.28
2022-08-01T22:22:42.465Z,99593.00
2022-08-01T22:25:05.117Z,99589.94
2022-08-01T22:28:06.549Z,99595.94
2022-08-01T22:30:24.435Z,99601.09
2022-08-01T22:33:07.239Z,99596.63
2022-08-01T22:35:46.737Z,99599.28
2022-08-01T22:38:17.815Z,99593.31
2022-08-01T22:40:50.484Z,99588.06
2022-08-01T22:43:26.620Z,99592.97
2022-08-01T22:46:10.100Z,99592.19
2022-08-01T22:48:45.869Z,99580.69
2022-08-01T22:51:26.465Z,99584.53
2022-08-01T22:54:02.246Z,99582.34
2022-08-01T22:56:33.221Z,99575.22
2022-08-01T22:59:10.963Z,99583.94
2022-08-01T23:01:47.588Z,99575.22
2022-08-01T23:04:33.403Z,99575.41
2022-08-01T23:07:05.521Z,99584.19
2022-08-01T23:09:48.052Z,99580.72
2022-08-01T23:12:25.770Z,99577.13
2022-08-01T23:14:57.849Z,99583.63
2022-08-01T23:17:29.280Z,99585.88
2022-08-01T23:19:59.808Z,99582.78
2022-08-01T23:22:31.259Z,99596.53
2022-08-01T23:25:05.218Z,99593.25
2022-08-01T23:27:51.970Z,99586.16
2022-08-01T23:30:28.571Z,99581.53
2022-08-01T23:32:57.611Z,99584.19
2022-08-01T23:35:27.340Z,99577.41
2022-08-01T23:38:02.032Z,99573.81
2022-08-01T23:40:32.735Z,99571.50
2022-08-01T23:43:06.304Z,99564.63
2022-08-01T23:46:03.474Z,99581.53
2022-08-01T23:48:34.616Z,99580.22
2022-08-01T23:51:04.184Z,99574.84
2022-08-01T23:53:33.923Z,99586.47
2022-08-01T23:56:05.414Z,99585.66
2022-08-01T23:58:34.024Z,99585.66
